sensor_id;sensor_type;location;lat;lon;timestamp;P1;durP1;ratioP1;P2;durP2;ratioP2
8171;SDS011;4127;47.908;10.850;2023-04-08T16:01:30;19.27;;;17.37;;
8171;SDS011;4127;47.908;10.850;2023-04-08T16:03:58;23.83;;;21.17;;
8171;SDS011;4127;47.908;10.850;2023-04-08T16:06:25;20.23;;;18.23;;
8171;SDS011;4127;47.908;10.850;2023-04-08T16:08:52;19.10;;;17.10;;
8171;SDS011;4127;47.908;10.850;2023-04-08T16:11:18;18.83;;;16.83;;
8171;SDS011;4127;47.908;10.850;2023-04-08T16:13:47;17.40;;;15.70;;
8171;SDS011;4127;47.908;10.850;2023-04-08T16:16:13;18.53;;;16.73;;
8171;SDS011;4127;47.908;10.850;2023-04-08T16:18:41;18.60;;;16.70;;
8171;SDS011;4127;47.908;10.850;2023-04-08T16:21:12;18.07;;;16.37;;
8171;SDS011;4127;47.908;10.850;2023-04-08T16:23:38;18.77;;;16.77;;
8171;SDS011;4127;47.908;10.850;2023-04-08T16:26:05;18.50;;;16.60;;
8171;SDS011;4127;47.908;10.850;2023-04-08T16:28:33;18.50;;;16.40;;
8171;SDS011;4127;47.908;10.850;2023-04-08T16:31:02;18.53;;;16.63;;
8171;SDS011;4127;47.908;10.850;2023-04-08T16:33:32;18.17;;;16.33;;
8171;SDS011;4127;47.908;10.850;2023-04-08T16:35:59;18.73;;;17.00;;
8171;SDS011;4127;47.908;10.850;2023-04-08T16:38:26;16.20;;;14.63;;
8171;SDS011;4127;47.908;10.850;2023-04-08T16:40:55;17.87;;;15.97;;
8171;SDS011;4127;47.908;10.850;2023-04-08T16:43:23;17.50;;;15.57;;
8171;SDS011;4127;47.908;10.850;2023-04-08T16:45:51;17.70;;;15.73;;
8171;SDS011;4127;47.908;10.850;2023-04-08T16:48:18;16.47;;;14.87;;
8171;SDS011;4127;47.908;10.850;2023-04-08T16:50:45;17.30;;;15.50;;
8171;SDS011;4127;47.908;10.850;2023-04-08T16:53:12;16.63;;;14.97;;
8171;SDS011;4127;47.908;10.850;2023-04-08T16:55:39;16.43;;;14.83;;
8171;SDS011;4127;47.908;10.850;2023-04-08T16:58:05;17.60;;;15.80;;
8171;SDS011;4127;47.908;10.850;2023-04-08T17:00:32;17.17;;;15.60;;
8171;SDS011;4127;47.908;10.850;2023-04-08T17:02:59;18.30;;;16.53;;
8171;SDS011;4127;47.908;10.850;2023-04-08T17:05:26;18.70;;;16.80;;
8171;SDS011;4127;47.908;10.850;2023-04-08T17:07:56;18.00;;;16.40;;
8171;SDS011;4127;47.908;10.850;2023-04-08T17:10:23;16.87;;;15.23;;
8171;SDS011;4127;47.908;10.850;2023-04-08T17:12:50;18.23;;;16.33;;
8171;SDS011;4127;47.908;10.850;2023-04-08T17:15:17;18.17;;;16.37;;
8171;SDS011;4127;47.908;10.850;2023-04-08T17:17:44;20.27;;;18.07;;
8171;SDS011;4127;47.908;10.850;2023-04-08T17:20:12;16.23;;;14.63;;
8171;SDS011;4127;47.908;10.850;2023-04-08T17:22:39;15.47;;;13.83;;
8171;SDS011;4127;47.908;10.850;2023-04-08T17:25:07;16.17;;;14.53;;
8171;SDS011;4127;47.908;10.850;2023-04-08T17:27:34;14.90;;;13.50;;
8171;SDS011;4127;47.908;10.850;2023-04-08T17:30:01;14.97;;;13.47;;
8171;SDS011;4127;47.908;10.850;2023-04-08T17:32:27;14.33;;;12.87;;
8171;SDS011;4127;47.908;10.850;2023-04-08T17:34:54;15.53;;;14.10;;
8171;SDS011;4127;47.908;10.850;2023-04-08T17:37:21;14.83;;;13.43;;
8171;SDS011;4127;47.908;10.850;2023-04-08T17:39:48;14.27;;;12.87;;
8171;SDS011;4127;47.908;10.850;2023-04-08T17:42:14;13.83;;;12.53;;
8171;SDS011;4127;47.908;10.850;2023-04-08T17:44:42;14.13;;;12.80;;
8171;SDS011;4127;47.908;10.850;2023-04-08T17:47:09;15.07;;;13.47;;
8171;SDS011;4127;47.908;10.850;2023-04-08T17:49:36;15.93;;;13.70;;
8171;SDS011;4127;47.908;10.850;2023-04-08T17:52:03;14.60;;;13.20;;
8171;SDS011;4127;47.908;10.850;2023-04-08T17:54:31;14.27;;;12.77;;
8171;SDS011;4127;47.908;10.850;2023-04-08T17:56:59;14.13;;;12.73;;
8171;SDS011;4127;47.908;10.850;2023-04-08T17:59:26;14.03;;;12.63;;
8171;SDS011;4127;47.908;10.850;2023-04-08T18:01:53;12.50;;;11.40;;
8171;SDS011;4127;47.908;10.850;2023-04-08T18:04:20;14.13;;;12.77;;
8171;SDS011;4127;47.908;10.850;2023-04-08T18:06:48;13.53;;;12.13;;
8171;SDS011;4127;47.908;10.850;2023-04-08T18:09:14;11.97;;;10.87;;
8171;SDS011;4127;47.908;10.850;2023-04-08T18:11:41;12.27;;;11.13;;
8171;SDS011;4127;47.908;10.850;2023-04-08T18:14:08;11.73;;;10.70;;
8171;SDS011;4127;47.908;10.850;2023-04-08T18:16:34;11.50;;;10.40;;
8171;SDS011;4127;47.908;10.850;2023-04-08T18:19:01;12.03;;;10.93;;
8171;SDS011;4127;47.908;10.850;2023-04-08T18:21:28;12.97;;;11.77;;
8171;SDS011;4127;47.908;10.850;2023-04-08T18:23:55;10.83;;;9.83;;
8171;SDS011;4127;47.908;10.850;2023-04-08T18:26:21;14.00;;;12.60;;
8171;SDS011;4127;47.908;10.850;2023-04-08T18:28:48;25.80;;;23.07;;
8171;SDS011;4127;47.908;10.850;2023-04-08T18:31:15;14.87;;;13.47;;
8171;SDS011;4127;47.908;10.850;2023-04-08T18:33:42;13.07;;;11.87;;
8171;SDS011;4127;47.908;10.850;2023-04-08T18:36:09;14.10;;;12.80;;
8171;SDS011;4127;47.908;10.850;2023-04-08T18:38:37;14.00;;;12.70;;
8171;SDS011;4127;47.908;10.850;2023-04-08T18:41:06;13.33;;;12.13;;
8171;SDS011;4127;47.908;10.850;2023-04-08T18:43:33;12.80;;;11.60;;
8171;SDS011;4127;47.908;10.850;2023-04-08T18:46:00;13.23;;;12.07;;
8171;SDS011;4127;47.908;10.850;2023-04-08T18:48:27;13.57;;;12.27;;
8171;SDS011;4127;47.908;10.850;2023-04-08T18:50:54;12.67;;;11.47;;
8171;SDS011;4127;47.908;10.850;2023-04-08T18:53:21;13.10;;;11.90;;
8171;SDS011;4127;47.908;10.850;2023-04-08T18:55:48;13.00;;;11.80;;
8171;SDS011;4127;47.908;10.850;2023-04-08T18:58:16;14.33;;;13.03;;
8171;SDS011;4127;47.908;10.850;2023-04-08T19:00:43;15.03;;;13.60;;
8171;SDS011;4127;47.908;10.850;2023-04-08T19:03:10;14.53;;;13.13;;
8171;SDS011;4127;47.908;10.850;2023-04-08T19:05:37;15.03;;;13.53;;
8171;SDS011;4127;47.908;10.850;2023-04-08T19:08:04;14.20;;;12.80;;
8171;SDS011;4127;47.908;10.850;2023-04-08T19:10:31;15.20;;;13.70;;
8171;SDS011;4127;47.908;10.850;2023-04-08T19:12:59;14.63;;;13.23;;
8171;SDS011;4127;47.908;10.850;2023-04-08T19:15:26;15.23;;;13.77;;
8171;SDS011;4127;47.908;10.850;2023-04-08T19:17:56;15.20;;;13.60;;
8171;SDS011;4127;47.908;10.850;2023-04-08T19:20:24;14.60;;;13.20;;
8171;SDS011;4127;47.908;10.850;2023-04-08T19:22:52;14.03;;;12.63;;
8171;SDS011;4127;47.908;10.850;2023-04-08T19:25:19;13.30;;;12.10;;
8171;SDS011;4127;47.908;10.850;2023-04-08T19:27:46;13.17;;;11.87;;
8171;SDS011;4127;47.908;10.850;2023-04-08T19:30:12;13.40;;;12.10;;
8171;SDS011;4127;47.908;10.850;2023-04-08T19:32:39;13.50;;;12.20;;
8171;SDS011;4127;47.908;10.850;2023-04-08T19:35:10;13.10;;;11.80;;
8171;SDS011;4127;47.908;10.850;2023-04-08T19:37:38;16.40;;;14.80;;
8171;SDS011;4127;47.908;10.850;2023-04-08T19:40:06;14.50;;;13.20;;
8171;SDS011;4127;47.908;10.850;2023-04-08T19:42:33;13.97;;;12.67;;
8171;SDS011;4127;47.908;10.850;2023-04-08T19:45:01;14.97;;;13.57;;
8171;SDS011;4127;47.908;10.850;2023-04-08T19:47:28;23.77;;;21.37;;
8171;SDS011;4127;47.908;10.850;2023-04-08T19:49:55;24.60;;;22.00;;
8171;SDS011;4127;47.908;10.850;2023-04-08T19:52:23;18.20;;;16.40;;
8171;SDS011;4127;47.908;10.850;2023-04-08T19:54:50;16.07;;;14.47;;
8171;SDS011;4127;47.908;10.850;2023-04-08T19:57:17;13.90;;;12.63;;
8171;SDS011;4127;47.908;10.850;2023-04-08T19:59:44;15.13;;;13.73;;
8171;SDS011;4127;47.908;10.850;2023-04-08T20:02:13;15.57;;;14.07;;
8171;SDS011;4127;47.908;10.850;2023-04-08T20:04:46;16.97;;;15.37;;
8171;SDS011;4127;47.908;10.850;2023-04-08T20:07:26;16.93;;;15.33;;
8171;SDS011;4127;47.908;10.850;2023-04-08T20:10:15;15.43;;;14.03;;
8171;SDS011;4127;47.908;10.850;2023-04-08T20:12:50;15.33;;;13.93;;
8171;SDS011;4127;47.908;10.850;2023-04-08T20:15:22;15.13;;;13.67;;
8171;SDS011;4127;47.908;10.850;2023-04-08T20:17:55;14.93;;;13.53;;
8171;SDS011;4127;47.908;10.850;2023-04-08T20:20:23;14.23;;;12.93;;
8171;SDS011;4127;47.908;10.850;2023-04-08T20:22:52;14.93;;;13.53;;
8171;SDS011;4127;47.908;10.850;2023-04-08T20:25:19;14.47;;;13.07;;
8171;SDS011;4127;47.908;10.850;2023-04-08T20:27:46;14.30;;;13.00;;
8171;SDS011;4127;47.908;10.850;2023-04-08T20:30:12;14.73;;;13.33;;
8171;SDS011;4127;47.908;10.850;2023-04-08T20:32:39;15.03;;;13.60;;
8171;SDS011;4127;47.908;10.850;2023-04-08T20:35:06;15.43;;;13.93;;
8171;SDS011;4127;47.908;10.850;2023-04-08T20:37:33;15.60;;;14.10;;
8171;SDS011;4127;47.908;10.850;2023-04-08T20:40:00;15.93;;;14.37;;
8171;SDS011;4127;47.908;10.850;2023-04-08T20:42:27;17.23;;;15.53;;
8171;SDS011;4127;47.908;10.850;2023-04-08T20:44:54;16.60;;;15.03;;
8171;SDS011;4127;47.908;10.850;2023-04-08T20:47:21;15.07;;;13.67;;
8171;SDS011;4127;47.908;10.850;2023-04-08T20:49:47;15.77;;;14.27;;
8171;SDS011;4127;47.908;10.850;2023-04-08T20:52:14;15.83;;;14.33;;
8171;SDS011;4127;47.908;10.850;2023-04-08T20:54:41;15.00;;;13.50;;
8171;SDS011;4127;47.908;10.850;2023-04-08T20:57:08;15.90;;;14.40;;
8171;SDS011;4127;47.908;10.850;2023-04-08T20:59:35;15.47;;;14.07;;
8171;SDS011;4127;47.908;10.850;2023-04-08T21:02:02;15.23;;;13.80;;
8171;SDS011;4127;47.908;10.850;2023-04-08T21:04:28;16.60;;;14.90;;
8171;SDS011;4127;47.908;10.850;2023-04-08T21:06:56;16.93;;;15.23;;
8171;SDS011;4127;47.908;10.850;2023-04-08T21:09:23;14.77;;;13.37;;
8171;SDS011;4127;47.908;10.850;2023-04-08T21:11:50;14.70;;;13.30;;
8171;SDS011;4127;47.908;10.850;2023-04-08T21:14:17;15.50;;;13.90;;
8171;SDS011;4127;47.908;10.850;2023-04-08T21:16:44;15.47;;;13.97;;
8171;SDS011;4127;47.908;10.850;2023-04-08T21:19:11;16.10;;;14.60;;
8171;SDS011;4127;47.908;10.850;2023-04-08T21:21:37;15.83;;;14.33;;
8171;SDS011;4127;47.908;10.850;2023-04-08T21:24:05;15.60;;;14.20;;
8171;SDS011;4127;47.908;10.850;2023-04-08T21:26:32;16.50;;;14.87;;
8171;SDS011;4127;47.908;10.850;2023-04-08T21:28:58;15.70;;;14.20;;
8171;SDS011;4127;47.908;10.850;2023-04-08T21:31:25;16.27;;;14.57;;
8171;SDS011;4127;47.908;10.850;2023-04-08T21:33:52;16.53;;;14.87;;
8171;SDS011;4127;47.908;10.850;2023-04-08T21:36:19;14.87;;;13.47;;
8171;SDS011;4127;47.908;10.850;2023-04-08T21:38:46;15.17;;;13.67;;
8171;SDS011;4127;47.908;10.850;2023-04-08T21:41:13;15.83;;;14.33;;
8171;SDS011;4127;47.908;10.850;2023-04-08T21:43:39;16.00;;;14.50;;
8171;SDS011;4127;47.908;10.850;2023-04-08T21:46:06;15.67;;;14.13;;
8171;SDS011;4127;47.908;10.850;2023-04-08T21:48:33;16.33;;;14.67;;
8171;SDS011;4127;47.908;10.850;2023-04-08T21:51:00;17.23;;;15.63;;
8171;SDS011;4127;47.908;10.850;2023-04-08T21:53:27;16.50;;;15.00;;
8171;SDS011;4127;47.908;10.850;2023-04-08T21:55:54;15.63;;;14.20;;
8171;SDS011;4127;47.908;10.850;2023-04-08T21:58:20;17.63;;;15.93;;
8171;SDS011;4127;47.908;10.850;2023-04-08T22:00:47;15.40;;;14.00;;
8171;SDS011;4127;47.908;10.850;2023-04-08T22:03:15;16.40;;;14.77;;
8171;SDS011;4127;47.908;10.850;2023-04-08T22:05:42;15.97;;;14.40;;
8171;SDS011;4127;47.908;10.850;2023-04-08T22:08:09;17.07;;;15.47;;
8171;SDS011;4127;47.908;10.850;2023-04-08T22:10:36;16.13;;;14.63;;
8171;SDS011;4127;47.908;10.850;2023-04-08T22:13:03;16.77;;;15.17;;
8171;SDS011;4127;47.908;10.850;2023-04-08T22:15:30;15.93;;;14.43;;
8171;SDS011;4127;47.908;10.850;2023-04-08T22:17:56;16.23;;;14.63;;
8171;SDS011;4127;47.908;10.850;2023-04-08T22:20:24;16.20;;;14.60;;
8171;SDS011;4127;47.908;10.850;2023-04-08T22:22:50;17.03;;;15.33;;
8171;SDS011;4127;47.908;10.850;2023-04-08T22:25:20;16.70;;;15.00;;
8171;SDS011;4127;47.908;10.850;2023-04-08T22:27:47;16.53;;;14.90;;
8171;SDS011;4127;47.908;10.850;2023-04-08T22:30:13;17.23;;;15.43;;
8171;SDS011;4127;47.908;10.850;2023-04-08T22:32:40;16.63;;;14.93;;
8171;SDS011;4127;47.908;10.850;2023-04-08T22:35:07;16.03;;;14.43;;
8171;SDS011;4127;47.908;10.850;2023-04-08T22:37:34;15.67;;;14.17;;
8171;SDS011;4127;47.908;10.850;2023-04-08T22:40:01;18.13;;;16.37;;
8171;SDS011;4127;47.908;10.850;2023-04-08T22:42:28;18.60;;;16.80;;
8171;SDS011;4127;47.908;10.850;2023-04-08T22:44:55;18.43;;;16.63;;
8171;SDS011;4127;47.908;10.850;2023-04-08T22:47:22;17.67;;;15.43;;
8171;SDS011;4127;47.908;10.850;2023-04-08T22:49:49;18.20;;;16.43;;
8171;SDS011;4127;47.908;10.850;2023-04-08T22:52:16;16.73;;;15.13;;
